sensor_id;sensor_type;location;lat;lon;timestamp;pressure;altitude;pressure_sealevel;temperature;humidity
48800;BME280;34611;47.964;7.982;2023-08-06T00:05:14;96160.19;;;17.14;66.71
48800;BME280;34611;47.964;7.982;2023-08-06T00:12:18;96149.69;;;17.14;66.65
48800;BME280;34611;47.964;7.982;2023-08-06T00:19:18;96133.91;;;17.14;66.63
48800;BME280;34611;47.964;7.982;2023-08-06T00:26:18;96132.94;;;17.15;66.78
48800;BME280;34611;47.964;7.982;2023-08-06T00:33:20;96138.19;;;17.15;66.78
48800;BME280;34611;47.964;7.982;2023-08-06T00:40:20;96122.44;;;17.15;66.83
48800;BME280;34611;47.964;7.982;2023-08-06T00:47:23;96115.53;;;17.14;66.81
48800;BME280;34611;47.964;7.982;2023-08-06T00:54:23;96109.28;;;17.15;66.72
48800;BME280;34611;47.964;7.982;2023-08-06T01:01:24;96097.16;;;17.14;66.80
48800;BME280;34611;47.964;7.982;2023-08-06T01:15:28;96070.88;;;17.14;66.73
48800;BME280;34611;47.964;7.982;2023-08-06T01:22:29;96079.78;;;17.13;66.72
48800;BME280;34611;47.964;7.982;2023-08-06T01:29:39;96081.41;;;17.14;66.75
48800;BME280;34611;47.964;7.982;2023-08-06T01:36:39;96076.16;;;17.14;66.75
48800;BME280;34611;47.964;7.982;2023-08-06T01:43:40;96071.69;;;17.14;66.72
48800;BME280;34611;47.964;7.982;2023-08-06T01:50:41;96061.19;;;17.14;66.71
48800;BME280;34611;47.964;7.982;2023-08-06T01:57:41;96057.75;;;17.14;66.84
48800;BME280;34611;47.964;7.982;2023-08-06T02:04:41;96070.88;;;17.14;66.71
48800;BME280;34611;47.964;7.982;2023-08-06T02:11:42;96064.03;;;17.13;66.80
48800;BME280;34611;47.964;7.982;2023-08-06T02:18:42;96053.53;;;17.13;66.78
48800;BME280;34611;47.964;7.982;2023-08-06T02:25:42;96049.88;;;17.14;66.81
48800;BME280;34611;47.964;7.982;2023-08-06T02:32:42;96065.63;;;17.14;66.67
48800;BME280;34611;47.964;7.982;2023-08-06T02:39:43;96069.06;;;17.14;66.83
48800;BME280;34611;47.964;7.982;2023-08-06T02:46:44;96068.25;;;17.14;66.77
48800;BME280;34611;47.964;7.982;2023-08-06T02:53:44;96097.16;;;17.14;66.78
48800;BME280;34611;47.964;7.982;2023-08-06T03:01:04;96103.41;;;17.13;66.75
48800;BME280;34611;47.964;7.982;2023-08-06T03:08:09;96111.31;;;17.13;66.70
48800;BME280;34611;47.964;7.982;2023-08-06T03:15:11;96104.22;;;17.13;66.78
48800;BME280;34611;47.964;7.982;2023-08-06T03:22:12;96106.84;;;17.13;66.75
48800;BME280;34611;47.964;7.982;2023-08-06T03:29:13;96085.03;;;17.13;66.69
48800;BME280;34611;47.964;7.982;2023-08-06T03:36:15;96096.34;;;17.13;66.72
48800;BME280;34611;47.964;7.982;2023-08-06T03:43:16;96074.53;;;17.13;66.70
48800;BME280;34611;47.964;7.982;2023-08-06T03:50:17;96085.03;;;17.13;66.79
48800;BME280;34611;47.964;7.982;2023-08-06T03:57:17;96080.59;;;17.13;66.80
48800;BME280;34611;47.964;7.982;2023-08-06T04:04:18;96081.56;;;17.12;66.68
48800;BME280;34611;47.964;7.982;2023-08-06T04:11:18;96085.03;;;17.13;66.75
48800;BME280;34611;47.964;7.982;2023-08-06T04:18:19;96100.78;;;17.13;66.84
48800;BME280;34611;47.964;7.982;2023-08-06T04:25:19;96106.03;;;17.13;66.80
48800;BME280;34611;47.964;7.982;2023-08-06T04:32:21;96092.91;;;17.13;66.69
48800;BME280;34611;47.964;7.982;2023-08-06T04:39:26;96085.03;;;17.13;66.73
48800;BME280;34611;47.964;7.982;2023-08-06T04:46:26;96095.53;;;17.13;66.78
48800;BME280;34611;47.964;7.982;2023-08-06T04:53:26;96083.41;;;17.12;66.77
48800;BME280;34611;47.964;7.982;2023-08-06T05:00:27;96078.94;;;17.12;66.77
48800;BME280;34611;47.964;7.982;2023-08-06T05:07:27;96100.78;;;17.13;66.70
48800;BME280;34611;47.964;7.982;2023-08-06T05:14:27;96106.84;;;17.13;66.70
48800;BME280;34611;47.964;7.982;2023-08-06T05:21:28;96094.72;;;17.12;66.67
48800;BME280;34611;47.964;7.982;2023-08-06T05:28:28;96106.84;;;17.13;66.84
48800;BME280;34611;47.964;7.982;2023-08-06T05:35:28;96114.91;;;17.12;66.70
48800;BME280;34611;47.964;7.982;2023-08-06T05:42:28;96121.81;;;17.13;66.76
48800;BME280;34611;47.964;7.982;2023-08-06T05:49:29;96129.69;;;17.13;66.71
48800;BME280;34611;47.964;7.982;2023-08-06T05:56:29;96134.09;;;17.12;66.75
48800;BME280;34611;47.964;7.982;2023-08-06T06:03:29;96131.47;;;17.12;66.82
48800;BME280;34611;47.964;7.982;2023-08-06T06:10:29;96136.72;;;17.12;66.81
48800;BME280;34611;47.964;7.982;2023-08-06T06:17:30;96145.44;;;17.13;66.80
48800;BME280;34611;47.964;7.982;2023-08-06T06:24:30;96151.69;;;17.12;66.77
48800;BME280;34611;47.964;7.982;2023-08-06T06:31:30;96163.00;;;17.12;66.79
48800;BME280;34611;47.964;7.982;2023-08-06T06:38:30;96162.19;;;17.12;66.87
48800;BME280;34611;47.964;7.982;2023-08-06T06:45:31;96167.44;;;17.12;66.75
48800;BME280;34611;47.964;7.982;2023-08-06T06:52:31;96177.13;;;17.11;66.76
48800;BME280;34611;47.964;7.982;2023-08-06T06:59:33;96176.94;;;17.13;66.71
48800;BME280;34611;47.964;7.982;2023-08-06T07:06:34;96177.94;;;17.12;66.77
48800;BME280;34611;47.964;7.982;2023-08-06T07:13:34;96179.75;;;17.11;66.83
48800;BME280;34611;47.964;7.982;2023-08-06T07:20:34;96182.38;;;17.11;66.79
48800;BME280;34611;47.964;7.982;2023-08-06T07:27:35;96195.50;;;17.11;66.82
48800;BME280;34611;47.964;7.982;2023-08-06T07:34:35;96214.72;;;17.12;66.82
48800;BME280;34611;47.964;7.982;2023-08-06T07:41:35;96206.81;;;17.12;66.76
48800;BME280;34611;47.964;7.982;2023-08-06T07:48:35;96219.97;;;17.12;66.81
48800;BME280;34611;47.964;7.982;2023-08-06T07:55:35;96219.97;;;17.12;66.79
48800;BME280;34611;47.964;7.982;2023-08-06T08:02:36;96227.03;;;17.11;66.83
48800;BME280;34611;47.964;7.982;2023-08-06T08:09:36;96228.84;;;17.11;66.79
48800;BME280;34611;47.964;7.982;2023-08-06T08:16:36;96210.47;;;17.11;66.80
48800;BME280;34611;47.964;7.982;2023-08-06T08:23:37;96234.91;;;17.11;66.82
48800;BME280;34611;47.964;7.982;2023-08-06T08:30:40;96244.59;;;17.11;66.65
48800;BME280;34611;47.964;7.982;2023-08-06T08:37:40;96246.22;;;17.12;66.73
48800;BME280;34611;47.964;7.982;2023-08-06T08:44:41;96255.09;;;17.11;66.79
48800;BME280;34611;47.964;7.982;2023-08-06T08:51:42;96259.53;;;17.10;66.77
48800;BME280;34611;47.964;7.982;2023-08-06T08:58:44;96253.47;;;17.10;66.78
48800;BME280;34611;47.964;7.982;2023-08-06T09:05:45;96270.88;;;17.11;66.80
48800;BME280;34611;47.964;7.982;2023-08-06T09:12:45;96271.66;;;17.11;66.77
48800;BME280;34611;47.964;7.982;2023-08-06T09:19:47;96286.63;;;17.11;66.83
48800;BME280;34611;47.964;7.982;2023-08-06T09:26:48;96294.50;;;17.11;66.72
48800;BME280;34611;47.964;7.982;2023-08-06T09:33:51;96299.75;;;17.11;66.91
48800;BME280;34611;47.964;7.982;2023-08-06T09:40:51;96304.16;;;17.10;66.75
48800;BME280;34611;47.964;7.982;2023-08-06T09:47:55;96303.38;;;17.10;66.78
48800;BME280;34611;47.964;7.982;2023-08-06T09:54:55;96323.38;;;17.11;66.80
48800;BME280;34611;47.964;7.982;2023-08-06T10:01:56;96318.13;;;17.11;66.75
48800;BME280;34611;47.964;7.982;2023-08-06T10:08:57;96324.19;;;17.11;66.79
48800;BME280;34611;47.964;7.982;2023-08-06T10:15:59;96329.44;;;17.11;66.88
48800;BME280;34611;47.964;7.982;2023-08-06T10:23:00;96322.56;;;17.10;66.73
48800;BME280;34611;47.964;7.982;2023-08-06T10:37:19;96339.97;;;17.11;66.80
48800;BME280;34611;47.964;7.982;2023-08-06T10:44:20;96339.16;;;17.11;66.90
48800;BME280;34611;47.964;7.982;2023-08-06T10:51:20;96332.25;;;17.10;66.70
48800;BME280;34611;47.964;7.982;2023-08-06T10:58:20;96337.50;;;17.10;66.74
48800;BME280;34611;47.964;7.982;2023-08-06T11:05:21;96354.91;;;17.11;66.68
48800;BME280;34611;47.964;7.982;2023-08-06T11:12:21;96356.69;;;17.10;66.72
48800;BME280;34611;47.964;7.982;2023-08-06T11:19:22;96370.66;;;17.11;66.73
48800;BME280;34611;47.964;7.982;2023-08-06T11:26:23;96389.03;;;17.11;66.81
48800;BME280;34611;47.964;7.982;2023-08-06T11:33:24;96398.72;;;17.10;66.77
48800;BME280;34611;47.964;7.982;2023-08-06T11:40:26;96407.44;;;17.11;66.81
48800;BME280;34611;47.964;7.982;2023-08-06T11:47:27;96416.28;;;17.10;66.86
48800;BME280;34611;47.964;7.982;2023-08-06T11:54:30;96401.53;;;17.09;66.76
48800;BME280;34611;47.964;7.982;2023-08-06T12:01:33;96406.59;;;17.10;66.81
48800;BME280;34611;47.964;7.982;2023-08-06T12:08:34;96405.78;;;17.10;66.84
48800;BME280;34611;47.964;7.982;2023-08-06T12:15:34;96404.97;;;17.09;66.71
48800;BME280;34611;47.964;7.982;2023-08-06T12:22:34;96411.84;;;17.10;66.75
48800;BME280;34611;47.964;7.982;2023-08-06T12:29:35;96426.00;;;17.09;66.76
48800;BME280;34611;47.964;7.982;2023-08-06T12:36:38;96431.25;;;17.09;66.84
48800;BME280;34611;47.964;7.982;2023-08-06T12:43:38;96445.19;;;17.10;66.80
48800;BME280;34611;47.964;7.982;2023-08-06T12:50:39;96426.00;;;17.09;66.71
48800;BME280;34611;47.964;7.982;2023-08-06T12:57:39;96435.69;;;17.09;66.79
48800;BME280;34611;47.964;7.982;2023-08-06T13:04:39;96480.97;;;17.11;66.77
48800;BME280;34611;47.964;7.982;2023-08-06T13:11:40;96485.38;;;17.10;66.68
48800;BME280;34611;47.964;7.982;2023-08-06T13:18:40;96493.47;;;17.09;66.71
48800;BME280;34611;47.964;7.982;2023-08-06T13:25:40;96496.72;;;17.11;66.80
48800;BME280;34611;47.964;7.982;2023-08-06T13:32:41;96499.53;;;17.09;66.70
48800;BME280;34611;47.964;7.982;2023-08-06T13:39:41;96502.16;;;17.09;66.78
48800;BME280;34611;47.964;7.982;2023-08-06T13:46:41;96501.34;;;17.09;66.83
48800;BME280;34611;47.964;7.982;2023-08-06T13:53:42;96505.59;;;17.10;66.76
48800;BME280;34611;47.964;7.982;2023-08-06T14:00:42;96502.97;;;17.10;66.71
48800;BME280;34611;47.964;7.982;2023-08-06T14:07:43;96509.22;;;17.09;66.80
48800;BME280;34611;47.964;7.982;2023-08-06T14:14:43;96522.34;;;17.09;66.85
48800;BME280;34611;47.964;7.982;2023-08-06T14:21:43;96527.59;;;17.09;66.73
48800;BME280;34611;47.964;7.982;2023-08-06T14:28:44;96517.09;;;17.09;66.84
48800;BME280;34611;47.964;7.982;2023-08-06T14:35:44;96538.09;;;17.09;66.84
48800;BME280;34611;47.964;7.982;2023-08-06T14:42:44;96589.63;;;17.10;66.85
48800;BME280;34611;47.964;7.982;2023-08-06T14:49:44;96574.88;;;17.09;66.76
48800;BME280;34611;47.964;7.982;2023-08-06T14:56:45;96599.31;;;17.09;66.74
48800;BME280;34611;47.964;7.982;2023-08-06T15:03:45;96593.25;;;17.09;66.84
48800;BME280;34611;47.964;7.982;2023-08-06T15:10:52;96593.25;;;17.09;66.80
48800;BME280;34611;47.964;7.982;2023-08-06T15:17:55;96579.28;;;17.08;66.83
48800;BME280;34611;47.964;7.982;2023-08-06T15:24:55;96606.38;;;17.09;66.84
48800;BME280;34611;47.964;7.982;2023-08-06T15:31:55;96596.88;;;17.08;66.86
48800;BME280;34611;47.964;7.982;2023-08-06T15:38:56;96614.28;;;17.09;66.85
48800;BME280;34611;47.964;7.982;2023-08-06T15:45:56;96651.84;;;17.09;66.80
48800;BME280;34611;47.964;7.982;2023-08-06T15:52:56;96647.41;;;17.10;66.84
48800;BME280;34611;47.964;7.982;2023-08-06T15:59:56;96656.28;;;17.09;66.80
48800;BME280;34611;47.964;7.982;2023-08-06T16:06:57;96667.78;;;17.08;66.88
48800;BME280;34611;47.964;7.982;2023-08-06T16:13:57;96664.34;;;17.07;66.90
48800;BME280;34611;47.964;7.982;2023-08-06T16:20:57;96665.94;;;17.08;66.85
48800;BME280;34611;47.964;7.982;2023-08-06T16:27:58;96673.84;;;17.08;66.80
48800;BME280;34611;47.964;7.982;2023-08-06T16:34:58;96668.59;;;17.08;66.86
48800;BME280;34611;47.964;7.982;2023-08-06T16:41:58;96661.53;;;17.09;66.82
48800;BME280;34611;47.964;7.982;2023-08-06T16:48:59;96670.41;;;17.08;66.80
48800;BME280;34611;47.964;7.982;2023-08-06T16:55:59;96690.44;;;17.09;66.83
48800;BME280;34611;47.964;7.982;2023-08-06T17:02:59;96713.22;;;17.08;66.87
48800;BME280;34611;47.964;7.982;2023-08-06T17:10:00;96745.59;;;17.09;66.80
48800;BME280;34611;47.964;7.982;2023-08-06T17:17:00;96737.72;;;17.09;66.84
48800;BME280;34611;47.964;7.982;2023-08-06T17:24:00;96746.41;;;17.09;66.86
48800;BME280;34611;47.964;7.982;2023-08-06T17:31:00;96743.94;;;17.08;66.79
48800;BME280;34611;47.964;7.982;2023-08-06T17:38:01;96744.75;;;17.08;66.70
48800;BME280;34611;47.964;7.982;2023-08-06T17:45:03;96750.00;;;17.08;66.81
48800;BME280;34611;47.964;7.982;2023-08-06T17:52:04;96744.75;;;17.08;66.79
48800;BME280;34611;47.964;7.982;2023-08-06T17:59:04;96745.59;;;17.09;66.66
48800;BME280;34611;47.964;7.982;2023-08-06T18:06:04;96750.00;;;17.08;66.80
48800;BME280;34611;47.964;7.982;2023-08-06T18:13:07;96759.69;;;17.08;66.70
48800;BME280;34611;47.964;7.982;2023-08-06T18:20:09;96751.81;;;17.08;66.79
48800;BME280;34611;47.964;7.982;2023-08-06T18:27:09;96753.63;;;17.07;66.76
48800;BME280;34611;47.964;7.982;2023-08-06T18:34:11;96752.28;;;17.11;66.86
48800;BME280;34611;47.964;7.982;2023-08-06T18:41:11;96759.44;;;16.94;66.48
48800;BME280;34611;47.964;7.982;2023-08-06T18:48:11;96771.28;;;16.90;66.08
48800;BME280;34611;47.964;7.982;2023-08-06T18:55:12;96773.91;;;16.90;66.02
48800;BME280;34611;47.964;7.982;2023-08-06T19:02:12;96779.47;;;16.87;65.94
48800;BME280;34611;47.964;7.982;2023-08-06T19:09:12;96786.69;;;16.85;66.09
48800;BME280;34611;47.964;7.982;2023-08-06T19:16:13;96783.44;;;16.83;65.92
48800;BME280;34611;47.964;7.982;2023-08-06T19:23:14;96791.50;;;16.82;65.73
48800;BME280;34611;47.964;7.982;2023-08-06T19:30:17;96789.69;;;16.82;65.38
48800;BME280;34611;47.964;7.982;2023-08-06T19:37:17;96787.88;;;16.83;65.14
48800;BME280;34611;47.964;7.982;2023-08-06T19:44:18;96792.59;;;16.87;65.16
48800;BME280;34611;47.964;7.982;2023-08-06T19:51:18;96792.31;;;16.66;64.00
48800;BME280;34611;47.964;7.982;2023-08-06T19:58:19;96790.22;;;16.53;63.31
48800;BME280;34611;47.964;7.982;2023-08-06T20:05:19;96799.59;;;16.39;61.92
48800;BME280;34611;47.964;7.982;2023-08-06T20:12:20;96809.41;;;16.53;61.82
48800;BME280;34611;47.964;7.982;2023-08-06T20:19:20;96808.72;;;16.59;61.85
48800;BME280;34611;47.964;7.982;2023-08-06T20:26:20;96824.84;;;16.07;59.97
48800;BME280;34611;47.964;7.982;2023-08-06T20:33:20;96843.22;;;15.32;62.89
48800;BME280;34611;47.964;7.982;2023-08-06T20:40:21;96846.81;;;14.96;66.14
48800;BME280;34611;47.964;7.982;2023-08-06T20:47:21;96830.50;;;15.03;67.68
48800;BME280;34611;47.964;7.982;2023-08-06T20:54:21;96837.16;;;14.97;69.20
48800;BME280;34611;47.964;7.982;2023-08-06T21:01:22;96839.63;;;14.98;69.19
48800;BME280;34611;47.964;7.982;2023-08-06T21:08:22;96843.91;;;15.08;66.67
48800;BME280;34611;47.964;7.982;2023-08-06T21:15:22;96857.28;;;14.96;66.04
48800;BME280;34611;47.964;7.982;2023-08-06T21:22:22;96869.91;;;15.01;65.53
48800;BME280;34611;47.964;7.982;2023-08-06T21:29:23;96863.84;;;15.01;63.94
48800;BME280;34611;47.964;7.982;2023-08-06T21:36:23;96875.47;;;14.98;63.79
48800;BME280;34611;47.964;7.982;2023-08-06T21:43:24;96889.41;;;15.07;63.98
48800;BME280;34611;47.964;7.982;2023-08-06T21:50:25;96905.41;;;15.04;63.78
48800;BME280;34611;47.964;7.982;2023-08-06T21:57:25;96902.75;;;15.22;63.08
48800;BME280;34611;47.964;7.982;2023-08-06T22:04:25;96911.28;;;14.97;63.28
48800;BME280;34611;47.964;7.982;2023-08-06T22:11:25;96911.59;;;14.94;62.86
48800;BME280;34611;47.964;7.982;2023-08-06T22:18:26;96915.69;;;14.97;61.75
48800;BME280;34611;47.964;7.982;2023-08-06T22:25:27;96917.78;;;14.93;62.78
48800;BME280;34611;47.964;7.982;2023-08-06T22:32:28;96919.41;;;14.86;62.05
48800;BME280;34611;47.964;7.982;2023-08-06T22:39:29;96920.16;;;14.78;62.64
48800;BME280;34611;47.964;7.982;2023-08-06T22:46:30;96918.72;;;14.84;61.84
48800;BME280;34611;47.964;7.982;2023-08-06T22:53:30;96907.88;;;14.79;62.01
48800;BME280;34611;47.964;7.982;2023-08-06T23:00:30;96900.97;;;14.70;62.11
48800;BME280;34611;47.964;7.982;2023-08-06T23:07:31;96903.97;;;14.83;62.11
48800;BME280;34611;47.964;7.982;2023-08-06T23:14:32;96898.50;;;14.68;62.11
48800;BME280;34611;47.964;7.982;2023-08-06T23:21:32;96910.41;;;14.63;62.49
48800;BME280;34611;47.964;7.982;2023-08-06T23:28:32;96908.41;;;14.56;63.20
48800;BME280;34611;47.964;7.982;2023-08-06T23:35:32;96896.06;;;14.67;61.80
48800;BME280;34611;47.964;7.982;2023-08-06T23:42:33;96901.22;;;14.59;61.18
48800;BME280;34611;47.964;7.982;2023-08-06T23:49:33;96900.63;;;14.65;61.65
48800;BME280;34611;47.964;7.982;2023-08-06T23:56:33;96905.44;;;14.77;61.05
